createdAt,value
2019-05-30T00:00:05.679Z,87600.87
2019-05-30T00:02:20.170Z,87597.63
2019-05-30T00:04:46.928Z,87596.28
2019-05-30T00:07:13.639Z,87596.31
2019-05-30T00:09:41.499Z,87599.30
2019-05-30T00:12:08.240Z,87603.89
2019-05-30T00:14:34.970Z,87603.41
2019-05-30T00:17:02.923Z,87603.02
2019-05-30T00:19:33.667Z,87612.12
2019-05-30T00:21:58.653Z,87610.38
2019-05-30T00:24:25.601Z,87606.39
2019-05-30T00:26:52.354Z,87608.06
2019-05-30T00:29:19.080Z,87614.14
2019-05-30T00:31:45.983Z,87611.20
2019-05-30T00:34:12.704Z,87611.61
2019-05-30T00:36:39.440Z,87610.89
2019-05-30T00:39:06.819Z,87608.22
2019-05-30T00:41:33.664Z,87608.50
2019-05-30T00:44:00.396Z,87608.64
2019-05-30T00:46:27.299Z,87607.97
2019-05-30T00:48:54.035Z,87605.89
2019-05-30T00:51:20.751Z,87609.92
2019-05-30T00:53:47.669Z,87606.12
2019-05-30T00:56:14.377Z,87607.57
2019-05-30T00:58:41.103Z,87614.08
2019-05-30T01:01:07.969Z,87615.58
2019-05-30T01:03:34.716Z,87614.89
2019-05-30T01:06:01.420Z,87614.70
2019-05-30T01:08:28.269Z,87612.41
2019-05-30T01:10:55.055Z,87613.72
2019-05-30T01:13:21.778Z,87616.30
2019-05-30T01:15:49.273Z,87611.73
2019-05-30T01:18:15.979Z,87609.52
2019-05-30T01:20:43.840Z,87615.31
2019-05-30T01:23:10.719Z,87612.91
2019-05-30T01:25:37.468Z,87614.44
2019-05-30T01:28:05.552Z,87615.75
2019-05-30T01:30:32.781Z,87617.38
2019-05-30T01:32:59.692Z,87610.78
2019-05-30T01:35:26.515Z,87612.91
2019-05-30T01:37:53.299Z,87609.95
2019-05-30T01:40:20.050Z,87618.70
2019-05-30T01:42:46.777Z,87617.96
2019-05-30T01:45:15.582Z,87614.16
2019-05-30T01:47:42.272Z,87614.08
2019-05-30T01:50:09.897Z,87620.45
2019-05-30T01:52:36.992Z,87613.07
2019-05-30T01:55:08.855Z,87614.80
2019-05-30T01:57:36.371Z,87615.53
2019-05-30T02:00:20.873Z,87611.76
2019-05-30T02:02:42.491Z,87613.40
2019-05-30T02:05:09.944Z,87621.62
2019-05-30T02:07:36.718Z,87616.23
2019-05-30T02:10:10.074Z,87620.58
2019-05-30T02:12:36.928Z,87615.53
2019-05-30T02:15:07.649Z,87618.78
2019-05-30T02:17:34.714Z,87619.90
2019-05-30T02:20:01.901Z,87621.34
2019-05-30T02:22:28.808Z,87623.88
2019-05-30T02:24:55.539Z,87630.44
2019-05-30T02:27:22.249Z,87630.03
2019-05-30T02:29:49.163Z,87631.07
2019-05-30T02:32:15.908Z,87631.42
2019-05-30T02:34:42.637Z,87630.38
2019-05-30T02:37:10.757Z,87641.42
2019-05-30T02:39:38.050Z,87643.14
2019-05-30T02:42:05.250Z,87644.04
2019-05-30T02:44:32.522Z,87648.73
2019-05-30T02:47:01.272Z,87648.66
2019-05-30T02:49:27.761Z,87646.60
2019-05-30T02:51:54.776Z,87645.07
2019-05-30T02:54:21.568Z,87641.00
2019-05-30T02:56:48.309Z,87652.87
2019-05-30T02:59:15.204Z,87653.02
2019-05-30T03:01:59.029Z,87650.94
2019-05-30T03:04:12.731Z,87652.92
2019-05-30T03:06:39.570Z,87660.73
2019-05-30T03:09:08.374Z,87655.81
2019-05-30T03:11:35.498Z,87663.97
2019-05-30T03:14:04.474Z,87661.25
2019-05-30T03:16:31.604Z,87661.47
2019-05-30T03:18:58.671Z,87666.72
2019-05-30T03:21:25.592Z,87662.78
2019-05-30T03:23:52.431Z,87663.88
2019-05-30T03:26:19.301Z,87668.70
2019-05-30T03:28:46.235Z,87670.69
2019-05-30T03:31:26.651Z,87678.09
2019-05-30T03:33:44.879Z,87676.02
2019-05-30T03:36:24.129Z,87679.59
2019-05-30T03:38:40.490Z,87678.92
2019-05-30T03:41:09.086Z,87682.38
2019-05-30T03:43:36.916Z,87682.38
2019-05-30T03:46:10.578Z,87683.49
2019-05-30T03:48:41.789Z,87689.82
2019-05-30T03:51:14.911Z,87695.83
2019-05-30T03:53:41.975Z,87702.92
2019-05-30T03:56:20.275Z,87703.15
2019-05-30T03:59:08.081Z,87705.42
2019-05-30T04:01:41.013Z,87699.63
2019-05-30T04:04:25.471Z,87701.07
2019-05-30T04:07:00.341Z,87705.45
2019-05-30T04:09:30.202Z,87709.32
2019-05-30T04:12:29.867Z,87714.21
2019-05-30T04:15:09.930Z,87718.23
2019-05-30T04:17:36.751Z,87716.00
2019-05-30T04:20:07.133Z,87719.58
2019-05-30T04:22:34.034Z,87720.34
2019-05-30T04:25:00.976Z,87720.86
2019-05-30T04:27:27.720Z,87724.31
2019-05-30T04:29:54.493Z,87719.48
2019-05-30T04:32:21.306Z,87719.70
2019-05-30T04:34:48.050Z,87724.95
2019-05-30T04:37:14.976Z,87736.94
2019-05-30T04:39:42.438Z,87734.53
2019-05-30T04:42:09.406Z,87733.42
2019-05-30T04:44:37.774Z,87732.33
2019-05-30T04:47:04.669Z,87732.33
2019-05-30T04:49:31.440Z,87740.06
2019-05-30T04:51:58.199Z,87735.23
2019-05-30T04:54:25.097Z,87735.39
2019-05-30T04:56:51.882Z,87737.75
2019-05-30T04:59:19.830Z,87735.33
2019-05-30T05:01:52.854Z,87737.14
2019-05-30T05:04:19.656Z,87741.00
2019-05-30T05:06:46.386Z,87745.90
2019-05-30T05:09:17.993Z,87746.47
2019-05-30T05:11:44.996Z,87752.13
2019-05-30T05:14:12.327Z,87750.55
2019-05-30T05:16:39.410Z,87744.41
2019-05-30T05:19:06.173Z,87749.45
2019-05-30T05:21:34.793Z,87746.08
2019-05-30T05:24:02.156Z,87756.17
2019-05-30T05:26:31.447Z,87748.22
2019-05-30T05:29:01.566Z,87752.48
2019-05-30T05:31:30.414Z,87753.75
2019-05-30T05:33:57.522Z,87751.81
2019-05-30T05:36:25.225Z,87755.20
2019-05-30T05:38:52.223Z,87742.02
2019-05-30T05:41:20.164Z,87743.86
2019-05-30T05:43:46.931Z,87747.36
2019-05-30T05:46:13.812Z,87751.09
2019-05-30T05:48:40.558Z,87743.53
2019-05-30T05:51:07.296Z,87749.94
2019-05-30T05:53:34.177Z,87744.84
2019-05-30T05:56:00.927Z,87749.72
2019-05-30T05:58:47.543Z,87749.14
2019-05-30T06:01:14.263Z,87742.39
2019-05-30T06:03:40.994Z,87744.03
2019-05-30T06:06:07.853Z,87747.80
2019-05-30T06:08:34.601Z,87757.72
2019-05-30T06:11:01.352Z,87754.61
2019-05-30T06:13:29.060Z,87751.93
2019-05-30T06:15:57.799Z,87749.61
2019-05-30T06:18:24.544Z,87757.75
2019-05-30T06:20:51.443Z,87753.14
2019-05-30T06:23:19.418Z,87757.92
2019-05-30T06:25:46.208Z,87758.65
2019-05-30T06:28:13.082Z,87757.58
2019-05-30T06:30:39.820Z,87760.30
2019-05-30T06:33:06.579Z,87760.78
2019-05-30T06:35:33.469Z,87759.58
2019-05-30T06:38:00.179Z,87755.52
2019-05-30T06:40:30.368Z,87760.69
2019-05-30T06:42:55.673Z,87763.69
2019-05-30T06:45:25.611Z,87763.38
2019-05-30T06:47:52.737Z,87765.33
2019-05-30T06:50:20.602Z,87772.08
2019-05-30T06:52:47.475Z,87765.16
2019-05-30T06:55:14.318Z,87758.44
2019-05-30T06:57:41.086Z,87769.77
2019-05-30T07:00:08.229Z,87765.89
2019-05-30T07:02:34.972Z,87766.66
2019-05-30T07:05:03.024Z,87765.97
2019-05-30T07:07:31.237Z,87767.67
2019-05-30T07:09:58.149Z,87769.06
2019-05-30T07:12:27.142Z,87767.05
2019-05-30T07:14:53.614Z,87766.41
2019-05-30T07:17:20.395Z,87766.87
2019-05-30T07:19:47.317Z,87766.52
2019-05-30T07:22:14.041Z,87771.05
2019-05-30T07:24:40.799Z,87769.40
2019-05-30T07:27:07.697Z,87775.67
2019-05-30T07:29:34.451Z,87765.34
2019-05-30T07:32:01.208Z,87767.09
2019-05-30T07:34:28.203Z,87767.19
2019-05-30T07:36:54.910Z,87768.90
2019-05-30T07:39:21.660Z,87765.55
2019-05-30T07:42:04.969Z,87773.73
2019-05-30T07:44:17.121Z,87775.87
2019-05-30T07:46:43.861Z,87780.81
2019-05-30T07:49:10.752Z,87775.20
2019-05-30T07:51:38.846Z,87773.91
2019-05-30T07:54:05.765Z,87773.19
2019-05-30T07:56:33.466Z,87773.02
2019-05-30T07:59:00.279Z,87777.96
2019-05-30T08:01:28.278Z,87767.95
2019-05-30T08:03:55.213Z,87777.64
2019-05-30T08:06:21.934Z,87769.95
2019-05-30T08:08:48.669Z,87762.23
2019-05-30T08:11:15.546Z,87757.34
2019-05-30T08:13:42.270Z,87756.60
2019-05-30T08:16:09.022Z,87750.58
2019-05-30T08:18:35.970Z,87754.73
2019-05-30T08:21:02.681Z,87748.71
2019-05-30T08:23:30.094Z,87751.80
2019-05-30T08:25:57.115Z,87755.41
2019-05-30T08:28:23.834Z,87755.98
2019-05-30T08:30:50.669Z,87754.69
2019-05-30T08:33:17.557Z,87752.02
2019-05-30T08:35:49.790Z,87758.45
2019-05-30T08:38:12.817Z,87756.17
2019-05-30T08:40:39.717Z,87759.76
2019-05-30T08:43:06.473Z,87747.82
2019-05-30T08:45:33.630Z,87761.44
2019-05-30T08:48:00.660Z,87753.08
2019-05-30T08:50:27.371Z,87746.09
2019-05-30T08:52:54.116Z,87747.04
2019-05-30T08:55:20.906Z,87749.50
2019-05-30T08:57:50.152Z,87760.11
2019-05-30T09:00:17.866Z,87758.98
2019-05-30T09:02:45.151Z,87758.23
2019-05-30T09:05:12.328Z,87752.72
2019-05-30T09:07:40.187Z,87754.59
2019-05-30T09:10:08.943Z,87752.50
2019-05-30T09:12:36.429Z,87752.47
2019-05-30T09:15:09.139Z,87752.45
2019-05-30T09:17:35.955Z,87753.95
2019-05-30T09:20:05.741Z,87750.95
2019-05-30T09:22:32.461Z,87753.78
2019-05-30T09:24:59.329Z,87752.98
2019-05-30T09:27:26.071Z,87762.86
2019-05-30T09:29:52.846Z,87763.03
2019-05-30T09:32:19.814Z,87750.28
2019-05-30T09:34:47.067Z,87746.87
2019-05-30T09:37:13.817Z,87749.86
2019-05-30T09:39:41.533Z,87743.20
2019-05-30T09:42:08.422Z,87749.20
2019-05-30T09:44:35.171Z,87762.84
2019-05-30T09:47:02.050Z,87761.31
2019-05-30T09:49:28.797Z,87756.53
2019-05-30T09:51:55.522Z,87751.29
2019-05-30T09:54:22.407Z,87759.98
2019-05-30T09:56:49.117Z,87754.64
2019-05-30T09:59:15.838Z,87751.19
2019-05-30T10:01:44.214Z,87749.26
2019-05-30T10:04:11.054Z,87751.15
2019-05-30T10:06:37.767Z,87744.67
2019-05-30T10:09:08.063Z,87748.20
2019-05-30T10:11:34.791Z,87749.64
2019-05-30T10:14:01.512Z,87747.74
2019-05-30T10:16:28.472Z,87753.32
2019-05-30T10:18:55.219Z,87751.18
2019-05-30T10:21:22.012Z,87750.72
2019-05-30T10:23:49.389Z,87750.30
2019-05-30T10:26:16.338Z,87749.99
2019-05-30T10:28:43.064Z,87755.25
2019-05-30T10:31:09.989Z,87754.88
2019-05-30T10:33:36.709Z,87761.48
2019-05-30T10:36:03.701Z,87759.52
2019-05-30T10:38:30.523Z,87760.80
2019-05-30T10:40:57.271Z,87758.47
2019-05-30T10:43:24.056Z,87756.97
2019-05-30T10:45:51.232Z,87760.30
2019-05-30T10:48:20.859Z,87767.14
2019-05-30T10:50:48.575Z,87760.27
2019-05-30T10:53:15.532Z,87763.45
2019-05-30T10:55:42.260Z,87759.38
2019-05-30T10:58:09.081Z,87762.45
2019-05-30T11:00:53.869Z,87759.25
2019-05-30T11:03:24.266Z,87753.77
2019-05-30T11:06:17.860Z,87754.80
2019-05-30T11:08:47.915Z,87761.84
2019-05-30T11:11:15.715Z,87758.42
2019-05-30T11:13:42.579Z,87759.90
2019-05-30T11:16:09.315Z,87753.13
2019-05-30T11:18:36.134Z,87757.42
2019-05-30T11:21:03.306Z,87757.63
2019-05-30T11:23:30.044Z,87757.89
2019-05-30T11:25:56.796Z,87753.98
2019-05-30T11:28:23.640Z,87757.45
2019-05-30T11:30:50.666Z,87753.52
2019-05-30T11:33:17.522Z,87751.00
2019-05-30T11:35:44.481Z,87751.05
2019-05-30T11:38:11.118Z,87748.75
2019-05-30T11:40:38.966Z,87750.78
2019-05-30T11:43:05.785Z,87751.96
2019-05-30T11:45:42.867Z,87752.69
2019-05-30T11:48:12.787Z,87756.34
2019-05-30T11:50:39.500Z,87761.06
2019-05-30T11:53:06.224Z,87753.20
2019-05-30T11:55:33.124Z,87756.44
2019-05-30T11:58:00.408Z,87757.20
2019-05-30T12:00:27.811Z,87757.05
2019-05-30T12:02:54.696Z,87759.71
2019-05-30T12:05:21.953Z,87753.27
2019-05-30T12:07:48.689Z,87760.80
2019-05-30T12:10:17.500Z,87756.22
2019-05-30T12:12:44.246Z,87761.19
2019-05-30T12:15:11.687Z,87758.80
2019-05-30T12:17:38.577Z,87758.97
2019-05-30T12:20:06.347Z,87761.86
2019-05-30T12:22:33.115Z,87758.75
2019-05-30T12:25:00.429Z,87767.02
2019-05-30T12:27:27.453Z,87764.94
2019-05-30T12:29:56.217Z,87761.41
2019-05-30T12:32:23.199Z,87769.59
2019-05-30T12:34:49.943Z,87770.39
2019-05-30T12:37:16.659Z,87777.88
2019-05-30T12:39:43.529Z,87775.71
2019-05-30T12:42:10.254Z,87775.96
2019-05-30T12:44:37.020Z,87779.44
2019-05-30T12:47:04.037Z,87780.86
2019-05-30T12:49:30.752Z,87785.64
2019-05-30T12:51:58.367Z,87780.59
2019-05-30T12:54:25.338Z,87783.69
2019-05-30T12:56:52.066Z,87785.31
2019-05-30T12:59:18.775Z,87782.27
2019-05-30T13:01:45.629Z,87793.97
2019-05-30T13:04:12.576Z,87790.41
2019-05-30T13:06:39.313Z,87794.56
2019-05-30T13:09:08.406Z,87793.59
2019-05-30T13:11:36.535Z,87797.22
2019-05-30T13:14:04.672Z,87793.45
2019-05-30T13:16:31.650Z,87794.70
2019-05-30T13:18:58.389Z,87804.78
2019-05-30T13:21:28.273Z,87795.47
2019-05-30T13:23:55.536Z,87802.53
2019-05-30T13:26:22.357Z,87805.76
2019-05-30T13:28:49.096Z,87805.55
2019-05-30T13:31:15.968Z,87810.02
2019-05-30T13:33:42.693Z,87807.59
2019-05-30T13:36:09.409Z,87817.52
2019-05-30T13:38:36.264Z,87814.92
2019-05-30T13:41:03.594Z,87817.99
2019-05-30T13:43:30.421Z,87818.14
2019-05-30T13:45:58.123Z,87820.16
2019-05-30T13:48:24.902Z,87821.50
2019-05-30T13:50:51.621Z,87824.32
2019-05-30T13:53:18.495Z,87822.34
2019-05-30T13:55:45.219Z,87822.89
2019-05-30T13:58:11.943Z,87827.09
2019-05-30T14:00:39.274Z,87825.22
2019-05-30T14:03:06.280Z,87826.73
2019-05-30T14:05:33.116Z,87826.67
2019-05-30T14:08:00.261Z,87826.67
2019-05-30T14:10:26.985Z,87821.63
2019-05-30T14:12:53.730Z,87822.53
2019-05-30T14:15:20.922Z,87819.63
2019-05-30T14:17:47.640Z,87822.42
2019-05-30T14:20:16.070Z,87824.45
2019-05-30T14:22:42.944Z,87826.70
2019-05-30T14:25:11.936Z,87820.00
2019-05-30T14:27:38.732Z,87819.27
2019-05-30T14:30:08.967Z,87826.91
2019-05-30T14:32:35.972Z,87831.56
2019-05-30T14:35:08.470Z,87824.83
2019-05-30T14:37:35.495Z,87827.77
2019-05-30T14:40:08.813Z,87830.66
2019-05-30T14:42:35.585Z,87827.85
2019-05-30T14:45:08.393Z,87827.36
2019-05-30T14:47:35.363Z,87831.97
2019-05-30T14:50:08.764Z,87832.09
2019-05-30T14:52:36.058Z,87832.31
2019-05-30T14:55:06.738Z,87828.41
2019-05-30T14:57:33.390Z,87823.52
2019-05-30T15:00:00.302Z,87826.82
2019-05-30T15:02:27.007Z,87827.91
2019-05-30T15:04:53.757Z,87825.90
2019-05-30T15:07:20.653Z,87826.66
2019-05-30T15:09:47.413Z,87826.38
2019-05-30T15:12:14.131Z,87828.77
2019-05-30T15:14:41.042Z,87830.87
2019-05-30T15:17:07.973Z,87838.86
2019-05-30T15:19:34.835Z,87830.40
2019-05-30T15:22:01.710Z,87828.77
2019-05-30T15:24:28.507Z,87833.70
2019-05-30T15:26:55.239Z,87825.66
2019-05-30T15:29:22.117Z,87827.70
2019-05-30T15:31:48.832Z,87827.53
2019-05-30T15:34:16.736Z,87826.78
2019-05-30T15:36:43.731Z,87825.53
2019-05-30T15:39:10.893Z,87824.95
2019-05-30T15:41:37.684Z,87828.05
2019-05-30T15:44:04.578Z,87829.02
2019-05-30T15:46:31.328Z,87835.70
2019-05-30T15:48:58.480Z,87836.39
2019-05-30T15:51:25.372Z,87832.48
2019-05-30T15:53:52.170Z,87830.89
2019-05-30T15:56:19.446Z,87830.77
2019-05-30T15:58:46.591Z,87827.82
2019-05-30T16:01:13.916Z,87828.60
2019-05-30T16:03:40.843Z,87830.22
2019-05-30T16:06:07.662Z,87833.88
2019-05-30T16:08:34.373Z,87840.06
2019-05-30T16:11:01.122Z,87842.55
2019-05-30T16:13:28.022Z,87839.36
2019-05-30T16:15:54.817Z,87846.79
2019-05-30T16:18:22.057Z,87846.20
2019-05-30T16:20:49.152Z,87844.48
2019-05-30T16:23:16.570Z,87838.59
2019-05-30T16:25:43.499Z,87842.59
2019-05-30T16:28:10.546Z,87846.13
2019-05-30T16:30:38.692Z,87847.73
2019-05-30T16:33:05.514Z,87842.92
2019-05-30T16:35:32.614Z,87840.47
2019-05-30T16:37:59.374Z,87848.88
2019-05-30T16:40:26.693Z,87853.20
2019-05-30T16:42:53.758Z,87850.25
2019-05-30T16:45:24.688Z,87845.84
2019-05-30T16:47:49.447Z,87852.30
2019-05-30T16:50:20.663Z,87850.83
2019-05-30T16:52:47.420Z,87857.89
2019-05-30T16:55:15.178Z,87859.87
2019-05-30T16:57:42.335Z,87861.63
2019-05-30T17:00:12.250Z,87870.73
2019-05-30T17:02:38.968Z,87868.34
2019-05-30T17:05:08.502Z,87877.30
2019-05-30T17:07:35.591Z,87878.41
2019-05-30T17:10:21.541Z,87875.08
2019-05-30T17:12:35.564Z,87876.34
2019-05-30T17:15:08.538Z,87882.59
2019-05-30T17:17:35.257Z,87880.66
2019-05-30T17:20:05.555Z,87882.39
2019-05-30T17:22:32.303Z,87890.20
2019-05-30T17:24:59.034Z,87889.44
2019-05-30T17:27:26.145Z,87896.53
2019-05-30T17:29:53.175Z,87902.86
2019-05-30T17:32:19.895Z,87897.61
2019-05-30T17:34:46.782Z,87902.02
2019-05-30T17:37:13.897Z,87906.61
2019-05-30T17:39:40.652Z,87912.31
2019-05-30T17:42:07.449Z,87913.14
2019-05-30T17:44:36.467Z,87914.31
2019-05-30T17:47:03.350Z,87911.84
2019-05-30T17:49:30.507Z,87927.43
2019-05-30T17:51:57.614Z,87925.91
2019-05-30T17:54:25.899Z,87927.42
2019-05-30T17:56:52.982Z,87932.00
2019-05-30T17:59:20.166Z,87934.45
2019-05-30T18:01:46.995Z,87936.18
2019-05-30T18:04:13.938Z,87935.45
2019-05-30T18:06:40.662Z,87938.27
2019-05-30T18:09:07.374Z,87943.00
2019-05-30T18:11:34.264Z,87954.77
2019-05-30T18:14:03.185Z,87950.63
2019-05-30T18:16:29.898Z,87947.03
2019-05-30T18:18:56.836Z,87944.00
2019-05-30T18:21:23.639Z,87947.02
2019-05-30T18:23:50.325Z,87956.31
2019-05-30T18:26:17.212Z,87953.67
2019-05-30T18:28:44.972Z,87953.11
2019-05-30T18:31:11.923Z,87962.21
2019-05-30T18:33:38.867Z,87966.56
2019-05-30T18:36:05.613Z,87971.29
2019-05-30T18:38:32.626Z,87971.48
2019-05-30T18:41:10.740Z,87974.14
2019-05-30T18:43:28.824Z,87981.31
2019-05-30T18:45:55.569Z,87982.44
2019-05-30T18:48:23.276Z,87979.03
2019-05-30T18:50:50.190Z,87990.92
2019-05-30T18:53:16.945Z,87988.25
2019-05-30T18:55:44.148Z,87993.91
2019-05-30T18:58:11.701Z,87995.41
2019-05-30T19:00:38.571Z,87991.58
2019-05-30T19:03:05.366Z,87996.83
2019-05-30T19:05:32.682Z,88002.64
2019-05-30T19:07:59.428Z,88012.81
2019-05-30T19:10:27.817Z,88011.45
2019-05-30T19:12:54.615Z,88013.47
2019-05-30T19:15:21.350Z,88015.28
2019-05-30T19:17:48.231Z,88029.80
2019-05-30T19:20:17.149Z,88034.70
2019-05-30T19:22:43.874Z,88034.63
2019-05-30T19:25:11.079Z,88038.36
2019-05-30T19:27:38.965Z,88041.90
2019-05-30T19:30:09.233Z,88046.74
2019-05-30T19:32:36.953Z,88051.05
2019-05-30T19:35:09.477Z,88053.23
2019-05-30T19:37:37.432Z,88046.36
2019-05-30T19:40:05.488Z,88051.75
2019-05-30T19:42:33.439Z,88053.53
2019-05-30T19:45:00.265Z,88069.31
2019-05-30T19:47:28.555Z,88070.75
2019-05-30T19:49:55.421Z,88074.23
2019-05-30T19:52:22.157Z,88079.63
2019-05-30T19:54:49.071Z,88086.15
2019-05-30T19:57:15.810Z,88087.94
2019-05-30T19:59:42.533Z,88087.85
2019-05-30T20:02:09.437Z,88094.58
2019-05-30T20:04:36.409Z,88096.88
2019-05-30T20:07:03.321Z,88095.23
2019-05-30T20:09:30.466Z,88104.95
2019-05-30T20:12:03.349Z,88105.25
2019-05-30T20:14:26.250Z,88113.28
2019-05-30T20:16:53.108Z,88111.86
2019-05-30T20:19:19.815Z,88116.81
2019-05-30T20:21:46.551Z,88113.12
2019-05-30T20:24:13.415Z,88119.82
2019-05-30T20:26:40.662Z,88123.26
2019-05-30T20:29:07.470Z,88129.48
2019-05-30T20:31:35.523Z,88133.31
2019-05-30T20:34:02.423Z,88130.34
2019-05-30T20:36:29.176Z,88135.09
2019-05-30T20:38:56.032Z,88139.00
2019-05-30T20:41:22.772Z,88139.64
2019-05-30T20:43:49.496Z,88136.92
2019-05-30T20:46:23.132Z,88142.51
2019-05-30T20:48:45.105Z,88139.66
2019-05-30T20:51:20.703Z,88141.20
2019-05-30T20:53:41.249Z,88148.88
2019-05-30T20:56:08.067Z,88154.30
2019-05-30T20:58:35.498Z,88147.52
2019-05-30T21:01:02.517Z,88152.52
2019-05-30T21:03:29.272Z,88154.38
2019-05-30T21:06:16.516Z,88156.83
2019-05-30T21:08:44.951Z,88163.66
2019-05-30T21:11:11.775Z,88157.42
2019-05-30T21:13:40.192Z,88155.55
2019-05-30T21:16:09.054Z,88156.05
2019-05-30T21:18:35.774Z,88157.34
2019-05-30T21:21:02.737Z,88164.55
2019-05-30T21:23:29.499Z,88161.83
2019-05-30T21:25:56.223Z,88167.70
2019-05-30T21:28:23.113Z,88170.05
2019-05-30T21:30:49.926Z,88166.31
2019-05-30T21:33:16.656Z,88167.11
2019-05-30T21:35:43.852Z,88168.36
2019-05-30T21:38:10.658Z,88162.59
2019-05-30T21:40:38.162Z,88165.42
2019-05-30T21:43:07.216Z,88167.41
2019-05-30T21:45:33.773Z,88169.62
2019-05-30T21:48:00.489Z,88168.66
2019-05-30T21:50:27.377Z,88168.78
2019-05-30T21:52:54.099Z,88168.49
2019-05-30T21:55:20.836Z,88167.78
2019-05-30T21:57:48.189Z,88175.73
2019-05-30T22:00:38.047Z,88167.87
2019-05-30T22:03:04.925Z,88171.27
2019-05-30T22:05:31.642Z,88175.69
2019-05-30T22:07:58.371Z,88176.28
2019-05-30T22:10:25.171Z,88174.80
2019-05-30T22:12:51.933Z,88174.62
2019-05-30T22:15:18.586Z,88176.83
2019-05-30T22:17:45.763Z,88181.02
2019-05-30T22:20:12.929Z,88178.09
2019-05-30T22:22:39.664Z,88178.01
2019-05-30T22:25:06.544Z,88168.52
2019-05-30T22:27:34.571Z,88173.47
2019-05-30T22:30:01.277Z,88165.13
2019-05-30T22:32:28.162Z,88163.09
2019-05-30T22:34:54.863Z,88161.48
2019-05-30T22:37:21.581Z,88165.31
2019-05-30T22:39:48.938Z,88162.38
2019-05-30T22:42:15.790Z,88166.44
2019-05-30T22:44:42.529Z,88162.84
2019-05-30T22:47:09.395Z,88164.48
2019-05-30T22:49:36.138Z,88166.56
2019-05-30T22:52:03.075Z,88162.74
2019-05-30T22:54:29.955Z,88173.36
2019-05-30T22:56:56.679Z,88164.30
2019-05-30T22:59:23.440Z,88170.66
2019-05-30T23:01:51.940Z,88176.60
2019-05-30T23:04:18.982Z,88174.44
2019-05-30T23:06:46.256Z,88174.87
2019-05-30T23:09:13.204Z,88177.84
2019-05-30T23:11:39.918Z,88178.50
2019-05-30T23:14:06.658Z,88171.08
2019-05-30T23:16:33.549Z,88171.42
2019-05-30T23:19:00.270Z,88177.13
2019-05-30T23:21:27.018Z,88170.92
2019-05-30T23:23:53.823Z,88178.02
2019-05-30T23:26:20.569Z,88181.64
2019-05-30T23:28:47.510Z,88172.69
2019-05-30T23:31:14.591Z,88172.25
2019-05-30T23:33:41.366Z,88174.48
2019-05-30T23:36:08.102Z,88184.64
2019-05-30T23:38:34.997Z,88178.87
2019-05-30T23:41:01.721Z,88178.02
2019-05-30T23:43:28.453Z,88179.76
2019-05-30T23:45:55.749Z,88177.45
2019-05-30T23:48:22.660Z,88177.36
2019-05-30T23:50:49.743Z,88177.81
2019-05-30T23:53:16.689Z,88179.00
2019-05-30T23:55:43.404Z,88170.70
2019-05-30T23:58:10.136Z,88175.17
